createdAt,value
2019-01-16T00:00:18.925Z,64.47
2019-01-16T00:01:41.799Z,64.56
2019-01-16T00:02:46.708Z,64.53
2019-01-16T00:03:57.595Z,64.18
2019-01-16T00:05:05.226Z,64.25
2019-01-16T00:06:16.107Z,64.41
2019-01-16T00:07:32.836Z,64.37
2019-01-16T00:08:46.495Z,64.39
2019-01-16T00:10:00.597Z,64.57
2019-01-16T00:11:20.292Z,64.39
2019-01-16T00:12:37.506Z,64.10
2019-01-16T00:13:42.517Z,63.72
2019-01-16T00:14:50.174Z,63.43
2019-01-16T00:15:55.089Z,63.38
2019-01-16T00:17:06.276Z,63.75
2019-01-16T00:18:17.284Z,63.80
2019-01-16T00:19:20.625Z,64.03
2019-01-16T00:20:31.533Z,64.32
2019-01-16T00:21:42.088Z,64.78
2019-01-16T00:22:47.012Z,64.67
2019-01-16T00:23:57.941Z,64.86
2019-01-16T00:25:08.604Z,65.13
2019-01-16T00:26:25.728Z,65.22
2019-01-16T00:27:45.341Z,65.45
2019-01-16T00:28:50.264Z,65.44
2019-01-16T00:30:01.094Z,64.95
2019-01-16T00:31:21.094Z,64.97
2019-01-16T00:32:38.057Z,65.20
2019-01-16T00:33:48.455Z,65.02
2019-01-16T00:34:56.400Z,65.13
2019-01-16T00:36:10.000Z,65.27
2019-01-16T00:37:17.452Z,65.26
2019-01-16T00:38:27.864Z,65.40
2019-01-16T00:39:50.939Z,65.42
2019-01-16T00:41:04.773Z,65.45
2019-01-16T00:42:15.660Z,65.20
2019-01-16T00:43:23.267Z,64.68
2019-01-16T00:44:44.287Z,64.79
2019-01-16T00:45:54.907Z,64.88
2019-01-16T00:46:59.816Z,64.64
2019-01-16T00:48:04.816Z,64.53
2019-01-16T00:49:15.530Z,64.60
2019-01-16T00:50:23.147Z,64.60
2019-01-16T00:51:30.542Z,64.62
2019-01-16T00:52:35.464Z,64.58
2019-01-16T00:53:40.386Z,64.41
2019-01-16T00:54:50.838Z,64.50
2019-01-16T00:56:01.768Z,64.68
2019-01-16T00:57:18.573Z,65.00
2019-01-16T00:58:26.480Z,65.42
2019-01-16T00:59:43.476Z,65.43
2019-01-16T01:01:01.537Z,65.75
2019-01-16T01:02:06.549Z,65.81
2019-01-16T01:03:11.469Z,65.42
2019-01-16T01:04:32.694Z,65.58
2019-01-16T01:05:37.630Z,65.62
2019-01-16T01:06:59.002Z,65.96
2019-01-16T01:08:15.617Z,66.19
2019-01-16T01:09:23.442Z,66.70
2019-01-16T01:10:28.377Z,67.04
2019-01-16T01:11:51.412Z,67.21
2019-01-16T01:13:14.200Z,67.21
2019-01-16T01:14:19.129Z,67.36
2019-01-16T01:15:29.527Z,67.01
2019-01-16T01:16:37.370Z,66.93
2019-01-16T01:17:42.302Z,66.96
2019-01-16T01:18:55.820Z,66.95
2019-01-16T01:20:00.747Z,67.04
2019-01-16T01:21:21.601Z,67.28
2019-01-16T01:22:26.545Z,67.63
2019-01-16T01:23:31.465Z,67.72
2019-01-16T01:24:52.780Z,67.73
2019-01-16T01:25:57.718Z,67.52
2019-01-16T01:27:18.921Z,67.39
2019-01-16T01:28:32.533Z,67.29
2019-01-16T01:29:42.959Z,67.58
2019-01-16T01:30:50.331Z,67.57
2019-01-16T01:31:58.021Z,67.88
2019-01-16T01:33:03.309Z,67.97
2019-01-16T01:34:08.605Z,68.05
2019-01-16T01:35:13.533Z,68.23
2019-01-16T01:36:18.499Z,68.20
2019-01-16T01:37:32.434Z,68.25
2019-01-16T01:38:49.552Z,68.32
2019-01-16T01:39:57.195Z,68.23
2019-01-16T01:41:10.807Z,68.24
2019-01-16T01:42:27.870Z,68.07
2019-01-16T01:43:38.820Z,67.87
2019-01-16T01:44:59.722Z,67.90
2019-01-16T01:46:13.564Z,67.56
2019-01-16T01:47:18.827Z,67.59
2019-01-16T01:48:23.777Z,67.65
2019-01-16T01:49:34.375Z,67.58
2019-01-16T01:50:42.536Z,67.36
2019-01-16T01:51:47.462Z,66.33
2019-01-16T01:53:01.341Z,66.58
2019-01-16T01:54:12.238Z,65.77
2019-01-16T01:55:17.166Z,65.65
2019-01-16T01:56:22.105Z,65.47
2019-01-16T01:57:29.833Z,65.43
2019-01-16T01:58:40.639Z,65.09
2019-01-16T01:59:45.604Z,65.13
2019-01-16T02:00:56.085Z,65.38
2019-01-16T02:02:03.841Z,65.61
2019-01-16T02:03:11.586Z,65.95
2019-01-16T02:04:16.506Z,66.23
2019-01-16T02:05:21.493Z,66.98
2019-01-16T02:06:35.539Z,67.29
2019-01-16T02:07:56.750Z,67.24
2019-01-16T02:09:10.395Z,67.07
2019-01-16T02:10:33.467Z,66.78
2019-01-16T02:11:43.875Z,66.75
2019-01-16T02:13:01.190Z,66.90
2019-01-16T02:14:06.727Z,66.56
2019-01-16T02:15:13.394Z,66.82
2019-01-16T02:16:18.353Z,66.80
2019-01-16T02:17:26.151Z,66.75
2019-01-16T02:18:31.064Z,66.89
2019-01-16T02:19:36.348Z,66.83
2019-01-16T02:20:41.283Z,67.03
2019-01-16T02:22:02.360Z,67.01
2019-01-16T02:23:07.280Z,67.23
2019-01-16T02:24:28.754Z,67.31
2019-01-16T02:25:36.695Z,67.34
2019-01-16T02:26:47.306Z,67.38
2019-01-16T02:27:52.268Z,67.16
2019-01-16T02:29:12.515Z,66.74
2019-01-16T02:30:17.790Z,66.48
2019-01-16T02:31:22.714Z,66.99
2019-01-16T02:32:44.035Z,67.37
2019-01-16T02:34:01.228Z,67.73
2019-01-16T02:35:21.430Z,67.94
2019-01-16T02:36:32.112Z,67.72
2019-01-16T02:37:37.327Z,67.83
2019-01-16T02:38:44.953Z,67.63
2019-01-16T02:39:49.934Z,67.77
2019-01-16T02:41:13.028Z,68.00
2019-01-16T02:42:20.418Z,68.04
2019-01-16T02:43:31.260Z,68.06
2019-01-16T02:44:46.109Z,67.79
2019-01-16T02:45:56.941Z,67.54
2019-01-16T02:47:02.272Z,67.05
2019-01-16T02:48:07.200Z,66.85
2019-01-16T02:49:28.127Z,66.89
2019-01-16T02:50:33.059Z,67.49
2019-01-16T02:51:40.494Z,67.66
2019-01-16T02:52:47.989Z,67.88
2019-01-16T02:54:01.871Z,67.64
2019-01-16T02:55:13.795Z,67.38
2019-01-16T02:56:21.640Z,67.33
2019-01-16T02:57:26.606Z,67.19
2019-01-16T02:58:31.543Z,67.23
2019-01-16T02:59:42.413Z,67.56
2019-01-16T03:01:05.287Z,67.51
2019-01-16T03:02:22.282Z,67.50
2019-01-16T03:03:29.879Z,67.38
2019-01-16T03:04:34.881Z,67.35
2019-01-16T03:05:39.797Z,68.01
2019-01-16T03:06:56.596Z,68.42
2019-01-16T03:08:04.289Z,68.52
2019-01-16T03:09:12.510Z,68.41
2019-01-16T03:10:26.535Z,68.20
2019-01-16T03:11:40.795Z,67.65
2019-01-16T03:12:45.741Z,67.40
2019-01-16T03:13:59.326Z,66.77
2019-01-16T03:15:13.301Z,66.71
2019-01-16T03:16:21.214Z,67.14
2019-01-16T03:17:28.629Z,67.54
2019-01-16T03:18:39.286Z,67.87
2019-01-16T03:20:02.425Z,67.58
2019-01-16T03:21:07.391Z,67.36
2019-01-16T03:22:12.313Z,67.19
2019-01-16T03:23:23.225Z,67.32
2019-01-16T03:24:28.160Z,67.32
2019-01-16T03:25:33.085Z,67.34
2019-01-16T03:26:38.050Z,67.49
2019-01-16T03:27:55.075Z,67.70
2019-01-16T03:29:12.276Z,67.64
2019-01-16T03:30:32.209Z,68.10
2019-01-16T03:31:43.105Z,68.14
2019-01-16T03:32:59.677Z,68.08
2019-01-16T03:34:13.709Z,67.98
2019-01-16T03:35:34.995Z,68.52
2019-01-16T03:36:42.735Z,68.43
2019-01-16T03:37:59.486Z,68.59
2019-01-16T03:39:04.472Z,68.71
2019-01-16T03:40:11.995Z,68.74
2019-01-16T03:41:29.064Z,68.84
2019-01-16T03:42:33.999Z,68.87
2019-01-16T03:43:38.939Z,68.38
2019-01-16T03:44:44.353Z,68.09
2019-01-16T03:46:07.344Z,68.17
2019-01-16T03:47:15.573Z,68.49
2019-01-16T03:48:20.491Z,68.85
2019-01-16T03:49:25.412Z,69.17
2019-01-16T03:50:42.044Z,69.45
2019-01-16T03:51:47.023Z,69.70
2019-01-16T03:52:51.948Z,69.78
2019-01-16T03:54:13.234Z,70.03
2019-01-16T03:55:20.850Z,70.17
2019-01-16T03:56:41.922Z,70.13
2019-01-16T03:57:49.792Z,69.65
2019-01-16T03:59:10.900Z,69.71
2019-01-16T04:00:21.661Z,69.67
2019-01-16T04:01:35.277Z,69.62
2019-01-16T04:02:40.288Z,69.33
2019-01-16T04:03:53.923Z,69.77
2019-01-16T04:05:01.792Z,70.11
2019-01-16T04:06:15.744Z,70.37
2019-01-16T04:07:20.668Z,70.77
2019-01-16T04:08:28.508Z,70.85
2019-01-16T04:09:48.668Z,71.08
2019-01-16T04:10:56.351Z,71.28
2019-01-16T04:12:01.281Z,71.59
2019-01-16T04:13:06.242Z,71.81
2019-01-16T04:14:27.492Z,71.72
2019-01-16T04:15:32.453Z,71.49
2019-01-16T04:16:39.848Z,71.76
2019-01-16T04:18:01.161Z,71.93
2019-01-16T04:19:21.838Z,71.71
2019-01-16T04:20:26.995Z,71.82
2019-01-16T04:21:43.923Z,71.92
2019-01-16T04:22:54.814Z,71.86
2019-01-16T04:24:05.991Z,71.82
2019-01-16T04:25:13.506Z,71.76
2019-01-16T04:26:27.154Z,71.77
2019-01-16T04:27:44.183Z,71.79
2019-01-16T04:29:01.025Z,71.94
2019-01-16T04:30:08.803Z,72.03
2019-01-16T04:31:13.723Z,71.99
2019-01-16T04:32:18.655Z,72.06
2019-01-16T04:33:23.586Z,71.99
2019-01-16T04:34:45.090Z,72.14
2019-01-16T04:35:50.018Z,72.14
2019-01-16T04:37:00.888Z,72.01
2019-01-16T04:38:14.565Z,72.03
2019-01-16T04:39:28.470Z,72.22
2019-01-16T04:40:33.432Z,72.44
2019-01-16T04:41:50.435Z,72.50
2019-01-16T04:42:58.288Z,72.46
2019-01-16T04:44:06.002Z,72.75
2019-01-16T04:45:16.670Z,72.72
2019-01-16T04:46:37.760Z,72.72
2019-01-16T04:47:42.683Z,72.81
2019-01-16T04:48:53.453Z,72.93
2019-01-16T04:50:16.256Z,76.74
2019-01-16T04:51:24.062Z,77.87
2019-01-16T04:52:31.807Z,76.03
2019-01-16T04:53:36.744Z,76.39
2019-01-16T04:54:47.407Z,76.00
2019-01-16T04:55:52.691Z,76.80
2019-01-16T04:57:06.738Z,75.11
2019-01-16T04:58:14.413Z,74.03
2019-01-16T04:59:35.281Z,73.17
2019-01-16T05:00:49.050Z,72.75
2019-01-16T05:02:12.044Z,72.79
2019-01-16T05:03:31.787Z,72.75
2019-01-16T05:04:48.768Z,73.01
2019-01-16T05:05:53.706Z,73.52
2019-01-16T05:06:58.648Z,74.13
2019-01-16T05:08:12.321Z,74.24
2019-01-16T05:09:26.643Z,74.07
2019-01-16T05:10:43.923Z,73.63
2019-01-16T05:11:54.766Z,73.81
2019-01-16T05:13:02.789Z,73.96
2019-01-16T05:14:13.244Z,73.60
2019-01-16T05:15:23.956Z,73.47
2019-01-16T05:16:34.573Z,73.31
2019-01-16T05:17:42.420Z,73.08
2019-01-16T05:19:03.392Z,72.96
2019-01-16T05:20:10.068Z,72.82
2019-01-16T05:21:30.887Z,72.78
2019-01-16T05:22:38.758Z,72.90
2019-01-16T05:23:43.691Z,73.66
2019-01-16T05:24:51.101Z,73.75
2019-01-16T05:26:01.877Z,73.64
2019-01-16T05:27:15.758Z,73.53
2019-01-16T05:28:37.522Z,73.61
2019-01-16T05:30:00.564Z,73.58
2019-01-16T05:31:21.920Z,73.54
2019-01-16T05:32:44.939Z,73.54
2019-01-16T05:33:52.897Z,73.95
2019-01-16T05:34:57.861Z,73.91
2019-01-16T05:36:08.264Z,73.86
2019-01-16T05:37:15.934Z,73.91
2019-01-16T05:38:36.197Z,73.88
2019-01-16T05:39:57.382Z,73.83
2019-01-16T05:41:17.497Z,73.89
2019-01-16T05:42:34.427Z,74.12
2019-01-16T05:43:48.394Z,74.25
2019-01-16T05:44:53.413Z,74.21
2019-01-16T05:46:00.966Z,74.09
2019-01-16T05:47:17.985Z,74.01
2019-01-16T05:48:31.884Z,74.03
2019-01-16T05:49:46.644Z,74.22
2019-01-16T05:51:01.099Z,74.26
2019-01-16T05:52:21.898Z,74.32
2019-01-16T05:53:33.081Z,74.56
2019-01-16T05:54:54.593Z,74.37
2019-01-16T05:56:05.513Z,74.29
2019-01-16T05:57:26.480Z,74.37
2019-01-16T05:58:46.735Z,74.50
2019-01-16T05:59:51.663Z,74.70
2019-01-16T06:00:56.990Z,75.05
2019-01-16T06:02:10.642Z,74.86
2019-01-16T06:03:24.258Z,74.44
2019-01-16T06:04:29.197Z,74.34
2019-01-16T06:05:39.852Z,74.45
2019-01-16T06:07:01.357Z,74.65
2019-01-16T06:08:08.868Z,74.71
2019-01-16T06:09:25.791Z,74.47
2019-01-16T06:10:36.584Z,74.26
2019-01-16T06:11:56.592Z,74.45
2019-01-16T06:13:19.325Z,74.70
2019-01-16T06:14:26.874Z,74.88
2019-01-16T06:15:31.797Z,74.68
2019-01-16T06:16:52.645Z,74.82
2019-01-16T06:17:57.596Z,74.87
2019-01-16T06:19:08.022Z,74.87
2019-01-16T06:20:15.886Z,74.86
2019-01-16T06:21:36.902Z,75.04
2019-01-16T06:23:00.018Z,75.05
2019-01-16T06:24:04.935Z,75.26
2019-01-16T06:25:15.836Z,75.19
2019-01-16T06:26:26.539Z,75.03
2019-01-16T06:27:32.471Z,75.30
2019-01-16T06:28:53.835Z,75.54
2019-01-16T06:30:01.613Z,75.46
2019-01-16T06:31:06.580Z,75.38
2019-01-16T06:32:11.521Z,75.94
2019-01-16T06:33:16.449Z,76.30
2019-01-16T06:34:30.253Z,75.91
2019-01-16T06:35:40.816Z,75.69
2019-01-16T06:36:45.787Z,75.17
2019-01-16T06:37:56.419Z,75.44
2019-01-16T06:39:17.646Z,75.54
2019-01-16T06:40:28.358Z,76.85
2019-01-16T06:41:49.685Z,75.60
2019-01-16T06:42:54.653Z,75.26
2019-01-16T06:44:02.173Z,75.04
2019-01-16T06:45:14.059Z,75.07
2019-01-16T06:46:27.910Z,74.85
2019-01-16T06:47:36.001Z,74.81
2019-01-16T06:48:40.964Z,74.51
2019-01-16T06:49:51.847Z,74.20
2019-01-16T06:50:56.921Z,73.86
2019-01-16T06:52:01.864Z,73.31
2019-01-16T06:53:22.992Z,73.06
2019-01-16T06:54:44.135Z,75.15
2019-01-16T06:55:55.082Z,74.12
2019-01-16T06:57:05.855Z,72.72
2019-01-16T06:58:26.127Z,71.91
2019-01-16T06:59:42.981Z,71.60
2019-01-16T07:00:59.891Z,71.29
2019-01-16T07:02:19.759Z,71.50
2019-01-16T07:03:36.454Z,71.18
2019-01-16T07:04:41.386Z,70.74
2019-01-16T07:06:02.178Z,70.51
2019-01-16T07:07:25.352Z,70.68
2019-01-16T07:08:30.724Z,71.55
2019-01-16T07:09:53.558Z,71.58
2019-01-16T07:11:01.268Z,71.86
2019-01-16T07:12:22.114Z,71.98
2019-01-16T07:13:43.449Z,72.11
2019-01-16T07:14:48.386Z,74.88
2019-01-16T07:15:53.319Z,73.30
2019-01-16T07:17:10.055Z,72.82
2019-01-16T07:18:20.991Z,72.67
2019-01-16T07:19:44.227Z,72.73
2019-01-16T07:21:05.626Z,72.68
2019-01-16T07:22:25.784Z,72.21
2019-01-16T07:23:33.348Z,71.93
2019-01-16T07:24:38.347Z,72.08
2019-01-16T07:25:59.310Z,72.46
2019-01-16T07:27:20.567Z,72.42
2019-01-16T07:28:34.535Z,72.21
2019-01-16T07:29:51.497Z,72.48
2019-01-16T07:31:12.484Z,72.75
2019-01-16T07:32:23.717Z,72.62
2019-01-16T07:33:28.643Z,72.71
2019-01-16T07:34:36.298Z,72.53
2019-01-16T07:35:41.228Z,72.37
2019-01-16T07:36:46.288Z,72.05
2019-01-16T07:38:06.408Z,72.37
2019-01-16T07:39:14.038Z,72.79
2019-01-16T07:40:27.781Z,72.88
2019-01-16T07:41:38.318Z,72.32
2019-01-16T07:42:47.031Z,72.38
2019-01-16T07:43:50.027Z,72.07
2019-01-16T07:44:54.956Z,71.83
2019-01-16T07:46:02.635Z,71.58
2019-01-16T07:47:07.562Z,71.20
2019-01-16T07:48:15.365Z,70.25
2019-01-16T07:49:20.689Z,69.62
2019-01-16T07:50:31.084Z,69.12
2019-01-16T07:51:51.252Z,68.41
2019-01-16T07:53:07.822Z,68.23
2019-01-16T07:54:21.517Z,65.89
2019-01-16T07:55:38.180Z,68.67
2019-01-16T07:56:43.109Z,65.16
2019-01-16T07:57:48.359Z,63.40
2019-01-16T07:58:59.058Z,63.17
2019-01-16T08:00:18.907Z,63.20
2019-01-16T08:01:23.919Z,62.99
2019-01-16T08:02:35.078Z,61.63
2019-01-16T08:03:55.972Z,61.08
2019-01-16T08:05:10.318Z,60.57
2019-01-16T08:06:15.365Z,60.21
2019-01-16T08:07:23.257Z,59.81
2019-01-16T08:08:36.989Z,59.98
2019-01-16T08:09:44.525Z,59.56
2019-01-16T08:11:01.303Z,59.84
2019-01-16T08:12:12.332Z,60.01
2019-01-16T08:13:33.685Z,58.24
2019-01-16T08:14:44.631Z,57.56
2019-01-16T08:15:55.653Z,57.23
2019-01-16T08:17:00.653Z,56.30
2019-01-16T08:18:20.470Z,56.03
2019-01-16T08:19:31.491Z,54.81
2019-01-16T08:20:52.709Z,54.14
2019-01-16T08:21:57.631Z,53.79
2019-01-16T08:23:02.556Z,53.17
2019-01-16T08:24:13.344Z,53.43
2019-01-16T08:25:27.695Z,53.40
2019-01-16T08:26:48.775Z,53.88
2019-01-16T08:27:56.465Z,53.31
2019-01-16T08:29:04.216Z,53.38
2019-01-16T08:30:17.517Z,52.85
2019-01-16T08:31:22.934Z,52.51
2019-01-16T08:32:30.666Z,52.14
2019-01-16T08:33:38.202Z,53.02
2019-01-16T08:35:01.432Z,52.06
2019-01-16T08:36:25.067Z,52.59
2019-01-16T08:37:45.021Z,50.52
2019-01-16T08:38:58.932Z,50.62
2019-01-16T08:40:18.994Z,50.61
2019-01-16T08:41:23.991Z,49.68
2019-01-16T08:42:28.983Z,48.96
2019-01-16T08:43:42.556Z,48.79
2019-01-16T08:45:05.460Z,47.05
2019-01-16T08:46:13.025Z,47.30
2019-01-16T08:47:23.970Z,46.64
2019-01-16T08:48:34.620Z,45.79
2019-01-16T08:49:45.623Z,46.11
2019-01-16T08:51:06.981Z,45.88
2019-01-16T08:52:14.402Z,45.30
2019-01-16T08:53:35.690Z,46.17
2019-01-16T08:54:43.308Z,45.56
2019-01-16T08:56:04.453Z,45.32
2019-01-16T08:57:09.407Z,44.53
2019-01-16T08:58:20.329Z,44.08
2019-01-16T08:59:31.034Z,43.70
2019-01-16T09:00:36.012Z,44.11
2019-01-16T09:01:43.457Z,43.78
2019-01-16T09:02:51.373Z,42.92
2019-01-16T09:04:05.248Z,41.58
2019-01-16T09:05:18.198Z,42.46
2019-01-16T09:06:25.814Z,41.31
2019-01-16T09:07:36.435Z,41.24
2019-01-16T09:08:43.842Z,42.08
2019-01-16T09:09:54.453Z,42.47
2019-01-16T09:10:59.385Z,41.85
2019-01-16T09:12:13.204Z,41.55
2019-01-16T09:13:20.895Z,40.66
2019-01-16T09:14:28.541Z,41.20
2019-01-16T09:15:34.951Z,41.05
2019-01-16T09:16:46.252Z,39.98
2019-01-16T09:17:51.223Z,41.37
2019-01-16T09:19:12.334Z,40.70
2019-01-16T09:20:26.223Z,41.36
2019-01-16T09:21:31.169Z,40.86
2019-01-16T09:22:48.251Z,41.57
2019-01-16T09:23:53.582Z,40.67
2019-01-16T09:25:10.385Z,41.26
2019-01-16T09:26:20.951Z,40.49
2019-01-16T09:27:25.863Z,39.55
2019-01-16T09:28:42.407Z,40.23
2019-01-16T09:29:59.301Z,39.80
2019-01-16T09:31:07.188Z,39.59
2019-01-16T09:32:18.211Z,39.79
2019-01-16T09:33:39.570Z,38.54
2019-01-16T09:34:44.491Z,37.16
2019-01-16T09:35:55.137Z,36.58
2019-01-16T09:37:06.196Z,36.02
2019-01-16T09:38:23.049Z,35.67
2019-01-16T09:39:30.477Z,36.45
2019-01-16T09:40:35.399Z,36.44
2019-01-16T09:41:43.007Z,37.24
2019-01-16T09:42:53.683Z,37.82
2019-01-16T09:44:04.434Z,38.35
2019-01-16T09:45:26.758Z,39.73
2019-01-16T09:46:47.829Z,38.27
2019-01-16T09:47:52.750Z,36.69
2019-01-16T09:49:00.370Z,36.70
2019-01-16T09:50:06.675Z,38.34
2019-01-16T09:51:29.410Z,38.74
2019-01-16T09:52:34.400Z,38.48
2019-01-16T09:53:42.341Z,37.22
2019-01-16T09:55:05.624Z,37.47
2019-01-16T09:56:10.612Z,38.28
2019-01-16T09:57:28.317Z,37.68
2019-01-16T09:58:24.625Z,39.47
2019-01-16T09:59:38.082Z,39.27
2019-01-16T10:00:59.393Z,39.93
2019-01-16T10:02:04.759Z,40.74
2019-01-16T10:03:15.405Z,40.57
2019-01-16T10:04:20.453Z,40.03
2019-01-16T10:05:34.405Z,40.40
2019-01-16T10:06:51.193Z,40.46
2019-01-16T10:08:05.321Z,40.67
2019-01-16T10:09:16.388Z,40.74
2019-01-16T10:10:21.320Z,42.43
2019-01-16T10:11:29.131Z,41.47
2019-01-16T10:12:34.418Z,42.19
2019-01-16T10:13:55.608Z,39.67
2019-01-16T10:15:00.531Z,38.60
2019-01-16T10:16:05.470Z,38.37
2019-01-16T10:17:10.397Z,39.29
2019-01-16T10:18:15.329Z,38.90
2019-01-16T10:19:20.645Z,39.30
2019-01-16T10:20:25.573Z,38.51
2019-01-16T10:21:30.499Z,40.16
2019-01-16T10:22:41.449Z,39.41
2019-01-16T10:23:48.984Z,39.56
2019-01-16T10:24:59.698Z,39.62
2019-01-16T10:26:04.653Z,40.63
2019-01-16T10:27:15.201Z,41.76
2019-01-16T10:28:34.956Z,41.14
2019-01-16T10:29:43.671Z,40.21
2019-01-16T10:30:54.095Z,41.22
2019-01-16T10:32:17.051Z,41.89
2019-01-16T10:33:21.973Z,41.27
2019-01-16T10:34:26.921Z,42.40
2019-01-16T10:35:31.839Z,42.03
2019-01-16T10:36:36.820Z,40.83
2019-01-16T10:37:50.804Z,41.47
2019-01-16T10:39:04.666Z,43.01
2019-01-16T10:40:24.911Z,43.05
2019-01-16T10:41:30.206Z,43.50
2019-01-16T10:42:53.122Z,43.73
2019-01-16T10:44:16.302Z,43.84
2019-01-16T10:45:21.222Z,43.35
2019-01-16T10:46:41.410Z,44.23
2019-01-16T10:48:01.272Z,43.28
2019-01-16T10:49:06.285Z,41.93
2019-01-16T10:50:28.116Z,41.71
2019-01-16T10:51:38.956Z,42.83
2019-01-16T10:53:00.214Z,40.97
2019-01-16T10:54:07.996Z,41.08
2019-01-16T10:55:12.918Z,38.29
2019-01-16T10:56:17.904Z,37.51
2019-01-16T10:57:22.828Z,36.87
2019-01-16T10:58:27.749Z,36.01
2019-01-16T10:59:38.796Z,37.38
2019-01-16T11:00:52.347Z,37.06
2019-01-16T11:01:57.328Z,36.64
2019-01-16T11:03:04.825Z,34.79
2019-01-16T11:04:09.784Z,35.43
2019-01-16T11:05:14.760Z,35.62
2019-01-16T11:06:28.939Z,35.07
2019-01-16T11:07:33.882Z,34.25
2019-01-16T11:08:38.812Z,34.27
2019-01-16T11:09:49.885Z,35.12
2019-01-16T11:10:57.830Z,34.86
2019-01-16T11:12:03.194Z,35.80
2019-01-16T11:13:22.802Z,34.91
2019-01-16T11:14:36.729Z,33.78
2019-01-16T11:15:41.660Z,33.86
2019-01-16T11:16:56.691Z,34.25
2019-01-16T11:18:08.114Z,34.47
2019-01-16T11:19:29.228Z,34.67
2019-01-16T11:20:34.154Z,34.67
2019-01-16T11:21:39.085Z,35.07
2019-01-16T11:22:44.067Z,36.34
2019-01-16T11:24:05.538Z,36.08
2019-01-16T11:25:10.904Z,35.41
2019-01-16T11:26:31.898Z,33.43
2019-01-16T11:27:48.616Z,33.43
2019-01-16T11:29:09.483Z,32.40
2019-01-16T11:30:26.344Z,32.40
2019-01-16T11:31:31.365Z,33.92
2019-01-16T11:32:52.245Z,33.92
2019-01-16T11:34:00.629Z,32.78
2019-01-16T11:35:22.266Z,33.19
2019-01-16T11:36:43.361Z,31.62
2019-01-16T11:38:00.061Z,31.62
2019-01-16T11:39:23.330Z,32.01
2019-01-16T11:40:31.060Z,32.72
2019-01-16T11:41:41.697Z,33.16
2019-01-16T11:43:02.455Z,33.43
2019-01-16T11:44:23.678Z,33.29
2019-01-16T11:45:31.578Z,35.47
2019-01-16T11:46:48.451Z,32.21
2019-01-16T11:47:56.251Z,32.89
2019-01-16T11:49:19.353Z,31.83
2019-01-16T11:50:36.446Z,33.12
2019-01-16T11:51:47.547Z,33.12
2019-01-16T11:53:08.560Z,35.06
2019-01-16T11:54:28.448Z,34.49
2019-01-16T11:55:36.051Z,34.49
2019-01-16T11:56:40.992Z,34.93
2019-01-16T11:57:45.955Z,35.39
2019-01-16T11:58:59.720Z,34.46
2019-01-16T12:00:16.212Z,33.18
2019-01-16T12:01:37.547Z,33.18
2019-01-16T12:02:42.552Z,33.26
2019-01-16T12:04:03.948Z,33.26
2019-01-16T12:05:13.927Z,33.84
2019-01-16T12:06:34.978Z,33.84
2019-01-16T12:07:39.988Z,34.69
2019-01-16T12:09:00.014Z,32.24
2019-01-16T12:10:06.152Z,32.24
2019-01-16T12:11:14.006Z,33.47
2019-01-16T12:12:21.734Z,33.47
2019-01-16T12:13:29.504Z,31.92
2019-01-16T12:14:50.852Z,31.92
2019-01-16T12:16:13.817Z,32.83
2019-01-16T12:17:24.541Z,31.52
2019-01-16T12:18:32.437Z,30.07
2019-01-16T12:19:46.145Z,32.10
2019-01-16T12:20:53.806Z,30.57
2019-01-16T12:22:04.491Z,30.86
2019-01-16T12:23:12.252Z,30.52
2019-01-16T12:24:22.809Z,32.04
2019-01-16T12:25:33.579Z,30.12
2019-01-16T12:26:41.337Z,30.40
2019-01-16T12:27:55.370Z,30.85
2019-01-16T12:29:15.440Z,31.61
2019-01-16T12:30:38.406Z,32.06
2019-01-16T12:31:55.676Z,30.62
2019-01-16T12:33:06.630Z,29.99
2019-01-16T12:34:14.375Z,29.34
2019-01-16T12:35:24.718Z,29.27
2019-01-16T12:36:29.738Z,29.51
2019-01-16T12:37:40.235Z,28.60
2019-01-16T12:38:51.413Z,28.46
2019-01-16T12:39:59.254Z,31.86
2019-01-16T12:41:10.343Z,30.23
2019-01-16T12:42:21.002Z,30.85
2019-01-16T12:43:25.926Z,31.55
2019-01-16T12:44:33.833Z,30.60
2019-01-16T12:45:41.981Z,31.97
2019-01-16T12:47:02.829Z,30.91
2019-01-16T12:48:23.130Z,30.45
2019-01-16T12:49:40.427Z,30.82
2019-01-16T12:50:51.354Z,30.03
2019-01-16T12:51:56.374Z,31.55
2019-01-16T12:53:04.229Z,31.49
2019-01-16T12:54:12.159Z,31.83
2019-01-16T12:55:17.111Z,32.51
2019-01-16T12:56:22.070Z,31.90
2019-01-16T12:57:30.064Z,32.30
2019-01-16T12:58:44.041Z,33.77
2019-01-16T13:00:05.322Z,34.02
2019-01-16T13:01:10.297Z,32.34
2019-01-16T13:02:15.232Z,32.60
2019-01-16T13:03:36.513Z,31.45
2019-01-16T13:04:44.119Z,32.19
2019-01-16T13:05:59.208Z,33.47
2019-01-16T13:07:04.233Z,35.60
2019-01-16T13:08:09.541Z,33.41
2019-01-16T13:09:20.153Z,36.88
2019-01-16T13:10:43.126Z,36.62
2019-01-16T13:12:04.195Z,34.96
2019-01-16T13:13:09.108Z,34.96
2019-01-16T13:14:16.556Z,33.97
2019-01-16T13:15:21.481Z,33.55
2019-01-16T13:16:41.619Z,34.45
2019-01-16T13:18:04.416Z,35.65
2019-01-16T13:19:09.339Z,34.30
2019-01-16T13:20:23.263Z,32.99
2019-01-16T13:21:31.038Z,33.28
2019-01-16T13:22:35.985Z,34.19
2019-01-16T13:23:56.841Z,34.88
2019-01-16T13:25:07.630Z,35.45
2019-01-16T13:26:12.643Z,32.38
2019-01-16T13:27:17.587Z,32.38
2019-01-16T13:28:22.505Z,32.33
2019-01-16T13:29:43.736Z,32.31
2019-01-16T13:30:54.777Z,34.90
2019-01-16T13:31:59.747Z,34.21
2019-01-16T13:33:20.819Z,34.21
2019-01-16T13:34:25.816Z,31.93
2019-01-16T13:35:33.621Z,33.37
2019-01-16T13:36:50.436Z,33.37
2019-01-16T13:38:01.472Z,32.47
2019-01-16T13:39:25.364Z,35.44
2019-01-16T13:40:30.332Z,34.49
2019-01-16T13:41:37.862Z,35.49
2019-01-16T13:42:45.249Z,36.75
2019-01-16T13:44:05.354Z,36.80
2019-01-16T13:45:13.542Z,33.63
2019-01-16T13:46:18.470Z,33.63
2019-01-16T13:47:27.658Z,32.43
2019-01-16T13:48:52.754Z,34.81
2019-01-16T13:49:56.715Z,34.11
2019-01-16T13:51:03.220Z,33.03
2019-01-16T13:52:19.041Z,35.09
2019-01-16T13:53:37.764Z,35.09
2019-01-16T13:54:48.782Z,35.61
2019-01-16T13:55:53.750Z,35.61
2019-01-16T13:56:59.084Z,36.57
2019-01-16T13:58:06.747Z,37.63
2019-01-16T13:59:23.513Z,37.63
2019-01-16T14:00:34.208Z,34.83
2019-01-16T14:01:54.336Z,36.18
2019-01-16T14:03:10.268Z,34.96
2019-01-16T14:04:19.285Z,36.55
2019-01-16T14:05:27.009Z,37.27
2019-01-16T14:06:31.932Z,38.04
2019-01-16T14:07:39.516Z,37.41
2019-01-16T14:08:50.120Z,37.69
2019-01-16T14:10:13.920Z,37.90
2019-01-16T14:11:33.895Z,38.41
2019-01-16T14:12:50.830Z,39.14
2019-01-16T14:14:01.052Z,39.35
2019-01-16T14:15:15.059Z,38.76
2019-01-16T14:16:25.894Z,37.74
2019-01-16T14:17:44.434Z,35.34
2019-01-16T14:19:05.370Z,35.76
2019-01-16T14:20:13.568Z,35.76
2019-01-16T14:21:26.043Z,36.99
2019-01-16T14:22:33.970Z,37.54
2019-01-16T14:23:39.288Z,36.95
2019-01-16T14:24:47.467Z,38.57
2019-01-16T14:25:55.296Z,39.44
2019-01-16T14:27:12.313Z,39.96
2019-01-16T14:28:19.435Z,39.55
2019-01-16T14:29:30.307Z,39.69
2019-01-16T14:30:53.452Z,41.66
2019-01-16T14:32:01.073Z,42.06
2019-01-16T14:33:09.356Z,43.47
2019-01-16T14:34:14.232Z,43.44
2019-01-16T14:35:24.733Z,44.12
2019-01-16T14:36:38.525Z,43.77
2019-01-16T14:38:00.547Z,44.54
2019-01-16T14:39:25.622Z,45.54
2019-01-16T14:40:30.615Z,45.26
2019-01-16T14:41:50.756Z,46.61
2019-01-16T14:43:07.678Z,46.83
2019-01-16T14:44:12.607Z,48.51
2019-01-16T14:45:33.628Z,49.18
2019-01-16T14:46:38.549Z,49.45
2019-01-16T14:48:02.082Z,49.85
2019-01-16T14:49:07.838Z,50.90
2019-01-16T14:50:30.871Z,51.23
2019-01-16T14:51:37.430Z,51.53
2019-01-16T14:52:45.242Z,52.20
2019-01-16T14:53:56.301Z,52.78
2019-01-16T14:55:07.265Z,52.52
2019-01-16T14:56:12.189Z,53.25
2019-01-16T14:57:33.084Z,53.63
2019-01-16T14:58:53.230Z,52.81
2019-01-16T15:00:07.110Z,52.99
2019-01-16T15:01:18.274Z,53.36
2019-01-16T15:02:38.676Z,52.80
2019-01-16T15:03:43.602Z,52.88
2019-01-16T15:04:57.569Z,52.83
2019-01-16T15:06:04.999Z,52.34
2019-01-16T15:07:10.017Z,53.09
2019-01-16T15:08:15.029Z,53.43
2019-01-16T15:09:38.597Z,53.90
2019-01-16T15:10:43.584Z,54.36
2019-01-16T15:11:58.148Z,54.44
2019-01-16T15:13:08.629Z,54.29
2019-01-16T15:14:22.973Z,54.54
2019-01-16T15:15:43.885Z,54.89
2019-01-16T15:17:00.821Z,55.04
2019-01-16T15:18:08.769Z,55.79
2019-01-16T15:19:16.486Z,56.33
2019-01-16T15:20:21.423Z,56.47
2019-01-16T15:21:28.986Z,56.33
2019-01-16T15:22:37.250Z,56.54